Time;durP1;ratioP1;P1;durP2;ratioP2;P2;SDS_P1;SDS_P2;PMS_P1;PMS_P2;Temp;Humidity;BMP_temperature;BMP_pressure;BME280_temperature;BME280_humidity;BME280_pressure;Samples;Min_cycle;Max_cycle;Signal;HPM_P1;HPM_P2
2023/02/24 00:01:27;;;;;;;;;;;;;;;26.23;22.32;97541.16;5043326;28;19921;-86
2023/02/24 00:03:55;;;;;;;;;;;;;;;26.33;22.58;97536.34;5051666;28;19975;-86
2023/02/24 00:06:22;;;;;;;;;;;;;;;26.29;22.32;97532.88;5039583;28;19976;-86
2023/02/24 00:08:48;;;;;;;;;;;;;;;26.19;22.85;97534.88;5048151;28;19963;-86
2023/02/24 00:11:15;;;;;;;;;;;;;;;25.68;22.71;97530.78;5055970;28;20329;-86
2023/02/24 00:13:47;;;;;;;;;;;;;;;25.99;22.77;97526.00;5053727;28;19975;-86
2023/02/24 00:16:17;;;;;;;;;;;;;;;26.56;21.88;97530.97;5052246;28;19925;-86
2023/02/24 00:18:44;;;;;;;;;;;;;;;26.83;22.04;97535.16;5038841;28;20332;-86
2023/02/24 00:21:12;;;;;;;;;;;;;;;27.04;21.46;97526.59;5036699;28;19924;-86
2023/02/24 00:23:39;;;;;;;;;;;;;;;26.90;21.45;97517.94;5054729;28;19920;-86
2023/02/24 00:26:07;;;;;;;;;;;;;;;26.62;21.92;97533.97;5037860;28;19932;-86
2023/02/24 00:28:33;;;;;;;;;;;;;;;26.27;22.02;97515.69;5042282;28;19944;-86
2023/02/24 00:31:07;;;;;;;;;;;;;;;26.07;22.78;97518.84;5054813;28;19921;-86
2023/02/24 00:33:33;;;;;;;;;;;;;;;26.19;22.48;97515.19;5052585;28;20039;-87
2023/02/24 00:36:03;;;;;;;;;;;;;;;25.50;23.33;97508.16;5052528;28;20366;-86
2023/02/24 00:38:34;;;;;;;;;;;;;;;25.80;22.75;97513.06;5050644;28;20374;-87
2023/02/24 00:41:06;;;;;;;;;;;;;;;25.81;22.74;97503.41;5053547;28;19921;-87
2023/02/24 00:43:36;;;;;;;;;;;;;;;25.64;23.11;97493.59;5049962;28;19999;-86
2023/02/24 00:46:09;;;;;;;;;;;;;;;25.81;22.68;97492.91;5050310;28;19967;-87
2023/02/24 00:48:39;;;;;;;;;;;;;;;25.85;22.44;97487.94;5050849;28;19974;-87
2023/02/24 00:51:09;;;;;;;;;;;;;;;25.79;22.71;97486.97;5045285;28;19924;-87
2023/02/24 00:53:37;;;;;;;;;;;;;;;25.89;22.35;97485.00;5050236;28;19925;-87
2023/02/24 00:56:06;;;;;;;;;;;;;;;26.11;22.37;97485.78;5044216;28;19972;-87
2023/02/24 00:58:33;;;;;;;;;;;;;;;26.43;22.11;97488.06;5047000;28;20019;-86
2023/02/24 01:01:00;;;;;;;;;;;;;;;26.77;22.20;97484.25;5044366;28;19920;-86
2023/02/24 01:03:28;;;;;;;;;;;;;;;27.03;21.66;97481.94;5046720;28;19967;-86
2023/02/24 01:05:54;;;;;;;;;;;;;;;26.91;21.27;97480.09;5049510;28;19936;-87
2023/02/24 01:08:20;;;;;;;;;;;;;;;26.84;21.64;97469.13;5049859;28;19921;-87
2023/02/24 01:13:44;;;;;;;;;;;;;;;26.71;21.66;97466.41;5041881;28;19987;-87
2023/02/24 01:16:12;;;;;;;;;;;;;;;26.56;21.64;97469.03;5045829;28;20564;-87
2023/02/24 01:18:38;;;;;;;;;;;;;;;26.43;22.31;97468.38;5052226;28;19953;-87
2023/02/24 01:21:04;;;;;;;;;;;;;;;26.54;21.94;97460.25;5042007;28;19975;-87
2023/02/24 01:23:30;;;;;;;;;;;;;;;26.90;21.88;97456.75;5047849;28;19920;-86
2023/02/24 01:25:58;;;;;;;;;;;;;;;26.84;21.46;97452.97;5050968;28;19921;-87
2023/02/24 01:28:25;;;;;;;;;;;;;;;26.64;22.06;97452.63;5035556;28;19925;-87
2023/02/24 01:30:52;;;;;;;;;;;;;;;26.40;22.14;97460.06;5032445;28;19967;-87
2023/02/24 01:33:19;;;;;;;;;;;;;;;26.46;22.14;97446.94;5045322;28;19955;-86
2023/02/24 01:35:45;;;;;;;;;;;;;;;26.43;22.06;97459.94;5045687;28;19925;-86
2023/02/24 01:38:11;;;;;;;;;;;;;;;26.72;21.94;97453.91;5051132;28;20454;-87
2023/02/24 01:40:37;;;;;;;;;;;;;;;26.79;21.82;97448.00;5050202;28;19948;-87
2023/02/24 01:43:07;;;;;;;;;;;;;;;26.76;21.78;97448.13;5047786;28;19971;-86
2023/02/24 01:45:35;;;;;;;;;;;;;;;26.86;21.97;97442.06;5043253;28;19925;-86
2023/02/24 01:48:04;;;;;;;;;;;;;;;26.95;21.70;97433.59;5039199;28;19964;-86
2023/02/24 01:50:31;;;;;;;;;;;;;;;26.86;21.82;97430.00;5046294;28;20492;-87
2023/02/24 01:53:00;;;;;;;;;;;;;;;26.81;22.01;97433.44;5052017;28;19921;-86
2023/02/24 01:55:31;;;;;;;;;;;;;;;26.81;22.25;97433.44;5044431;28;19928;-86
2023/02/24 01:57:59;;;;;;;;;;;;;;;27.06;21.87;97427.47;5053976;28;20023;-86
2023/02/24 02:00:43;;;;;;;;;;;;;;;27.09;21.90;97427.34;5052278;28;19928;-87
2023/02/24 02:03:12;;;;;;;;;;;;;;;27.26;21.83;97433.41;5034708;28;19939;-87
2023/02/24 02:05:39;;;;;;;;;;;;;;;27.47;22.14;97428.91;5038467;28;19925;-87
2023/02/24 02:08:08;;;;;;;;;;;;;;;27.69;21.58;97418.97;5041865;28;19927;-87
2023/02/24 02:10:37;;;;;;;;;;;;;;;27.87;21.72;97418.91;5050679;28;19925;-86
2023/02/24 02:13:03;;;;;;;;;;;;;;;28.04;21.68;97425.78;5044609;28;19933;-86
2023/02/24 02:15:31;;;;;;;;;;;;;;;28.14;21.43;97418.03;5034842;28;19925;-87
2023/02/24 02:18:15;;;;;;;;;;;;;;;28.25;21.52;97412.66;5042069;28;20293;-87
2023/02/24 02:20:41;;;;;;;;;;;;;;;28.29;21.33;97412.47;5048472;28;19928;-86
2023/02/24 02:23:13;;;;;;;;;;;;;;;28.16;21.42;97409.88;5048921;28;19924;-86
2023/02/24 02:25:58;;;;;;;;;;;;;;;28.20;21.22;97410.47;5043743;28;19967;-86
2023/02/24 02:28:30;;;;;;;;;;;;;;;28.08;20.93;97417.91;5048125;28;19920;-86
2023/02/24 02:30:56;;;;;;;;;;;;;;;28.17;21.29;97414.25;5050647;28;19921;-87
2023/02/24 02:33:26;;;;;;;;;;;;;;;28.17;21.14;97407.84;5041904;28;19917;-87
2023/02/24 02:35:59;;;;;;;;;;;;;;;28.12;21.23;97402.84;5050613;28;20398;-86
2023/02/24 02:38:36;;;;;;;;;;;;;;;28.20;21.25;97407.66;5040025;28;19932;-86
2023/02/24 02:41:10;;;;;;;;;;;;;;;28.23;21.25;97400.28;5035019;28;20055;-86
2023/02/24 02:43:52;;;;;;;;;;;;;;;27.98;21.35;97393.75;5046511;28;19920;-86
2023/02/24 02:46:33;;;;;;;;;;;;;;;27.77;21.58;97394.78;5048028;28;19920;-86
2023/02/24 02:49:05;;;;;;;;;;;;;;;27.64;21.94;97397.03;5051846;28;19970;-86
2023/02/24 02:51:37;;;;;;;;;;;;;;;27.62;22.05;97388.28;5043780;28;19921;-87
2023/02/24 02:54:03;;;;;;;;;;;;;;;27.49;21.87;97389.72;5049893;28;20469;-87
2023/02/24 02:56:41;;;;;;;;;;;;;;;27.64;22.23;97390.59;5047344;28;19920;-86
2023/02/24 02:59:11;;;;;;;;;;;;;;;27.60;21.95;97384.34;5041057;28;19935;-87
2023/02/24 03:01:40;;;;;;;;;;;;;;;27.38;22.62;97382.53;5048709;28;19921;-87
2023/02/24 03:04:08;;;;;;;;;;;;;;;27.83;22.20;97387.25;5046940;28;19916;-86
2023/02/24 03:06:38;;;;;;;;;;;;;;;28.08;22.10;97386.06;5036841;28;20289;-87
2023/02/24 03:09:11;;;;;;;;;;;;;;;28.17;22.16;97388.09;5047663;28;20333;-86
2023/02/24 03:11:38;;;;;;;;;;;;;;;28.33;21.83;97382.03;5043345;28;19924;-86
2023/02/24 03:14:06;;;;;;;;;;;;;;;28.36;22.46;97375.41;5038149;28;20382;-87
2023/02/24 03:16:33;;;;;;;;;;;;;;;28.39;22.10;97382.91;5043568;28;20440;-87
2023/02/24 03:19:03;;;;;;;;;;;;;;;28.49;21.79;97381.59;5043616;28;19920;-88
2023/02/24 03:21:32;;;;;;;;;;;;;;;28.36;22.14;97387.47;5040370;28;19967;-88
2023/02/24 03:23:59;;;;;;;;;;;;;;;28.33;22.12;97379.19;5042680;28;19917;-88
2023/02/24 03:26:29;;;;;;;;;;;;;;;28.32;22.58;97380.44;5050899;28;19921;-89
2023/02/24 03:29:10;;;;;;;;;;;;;;;28.19;22.54;97389.16;5045563;28;19917;-88
2023/02/24 03:31:42;;;;;;;;;;;;;;;27.78;23.43;97373.78;5037887;28;19943;-88
2023/02/24 03:34:15;;;;;;;;;;;;;;;27.86;22.84;97377.06;5048067;28;20302;-88
2023/02/24 03:36:42;;;;;;;;;;;;;;;27.96;23.29;97373.72;5046597;28;20019;-88
2023/02/24 03:39:11;;;;;;;;;;;;;;;27.80;23.05;97370.50;5056495;28;19928;-88
2023/02/24 03:41:41;;;;;;;;;;;;;;;27.64;23.07;97368.84;5044844;28;19925;-88
2023/02/24 03:44:09;;;;;;;;;;;;;;;27.24;24.00;97373.91;5039729;28;19921;-88
2023/02/24 03:46:36;;;;;;;;;;;;;;;27.20;23.54;97373.28;5049449;28;19976;-88
2023/02/24 03:49:11;;;;;;;;;;;;;;;27.04;24.00;97359.53;5049531;28;19928;-88
2023/02/24 03:51:37;;;;;;;;;;;;;;;27.36;23.54;97351.19;5045526;28;19921;-88
2023/02/24 03:54:16;;;;;;;;;;;;;;;27.69;23.44;97354.09;5048437;28;19921;-88
2023/02/24 03:57:00;;;;;;;;;;;;;;;27.90;23.14;97338.16;5046304;28;19921;-88
2023/02/24 03:59:29;;;;;;;;;;;;;;;27.87;23.26;97334.25;5036140;28;19921;-88
2023/02/24 04:02:22;;;;;;;;;;;;;;;27.36;23.38;97328.63;5047914;28;19925;-88
2023/02/24 04:05:11;;;;;;;;;;;;;;;26.70;24.31;97324.78;5044464;28;19987;-88
2023/02/24 04:07:37;;;;;;;;;;;;;;;26.39;24.51;97320.56;5042370;28;19925;-88
2023/02/24 04:10:20;;;;;;;;;;;;;;;25.69;25.73;97318.66;5048412;28;20381;-88
2023/02/24 04:12:51;;;;;;;;;;;;;;;25.99;25.47;97317.81;5050287;28;20346;-87
2023/02/24 04:15:21;;;;;;;;;;;;;;;25.90;24.95;97312.97;5041351;28;20003;-88
2023/02/24 04:17:52;;;;;;;;;;;;;;;26.08;24.79;97313.00;5053394;28;20012;-87
2023/02/24 04:20:21;;;;;;;;;;;;;;;26.34;24.83;97305.09;5046893;28;20412;-89
2023/02/24 04:22:50;;;;;;;;;;;;;;;26.62;24.53;97297.44;5049756;28;19922;-89
2023/02/24 04:25:18;;;;;;;;;;;;;;;26.65;24.15;97291.63;5053388;28;20431;-89
2023/02/24 04:27:45;;;;;;;;;;;;;;;26.78;24.08;97288.69;5053925;28;19924;-88
2023/02/24 04:30:11;;;;;;;;;;;;;;;27.12;23.89;97293.16;5050385;28;19920;-91
2023/02/24 04:32:41;;;;;;;;;;;;;;;27.49;23.36;97286.19;5036583;28;19928;-88
2023/02/24 04:35:08;;;;;;;;;;;;;;;27.77;23.24;97279.13;5051694;28;20404;-88
2023/02/24 04:37:35;;;;;;;;;;;;;;;27.97;22.92;97287.00;5051510;28;20386;-89
2023/02/24 04:40:09;;;;;;;;;;;;;;;28.13;22.58;97283.81;5053471;28;19968;-88
2023/02/24 04:42:45;;;;;;;;;;;;;;;28.17;22.74;97283.63;5047642;28;20405;-88
2023/02/24 04:45:15;;;;;;;;;;;;;;;28.24;22.83;97281.22;5046408;28;20393;-89
2023/02/24 04:47:48;;;;;;;;;;;;;;;28.31;22.51;97277.25;5038548;28;19921;-89
2023/02/24 04:50:32;;;;;;;;;;;;;;;28.22;22.77;97275.28;5042215;28;19932;-88
2023/02/24 04:52:59;;;;;;;;;;;;;;;28.17;22.52;97275.94;5045906;28;19951;-87
2023/02/24 04:55:28;;;;;;;;;;;;;;;27.96;22.90;97263.66;5045815;28;19971;-88
2023/02/24 04:57:55;;;;;;;;;;;;;;;27.47;22.80;97266.13;5048440;28;19979;-87
2023/02/24 05:00:21;;;;;;;;;;;;;;;27.02;24.00;97257.81;5051398;28;19928;-87
2023/02/24 05:02:48;;;;;;;;;;;;;;;27.15;23.38;97249.94;5053937;28;19999;-87
2023/02/24 05:05:16;;;;;;;;;;;;;;;26.87;24.01;97245.63;5049939;28;19956;-88
2023/02/24 05:07:46;;;;;;;;;;;;;;;27.04;23.31;97246.84;5047655;28;19929;-88
2023/02/24 05:10:14;;;;;;;;;;;;;;;26.77;24.39;97253.31;5054370;28;19963;-89
2023/02/24 05:12:40;;;;;;;;;;;;;;;26.61;24.48;97251.59;5047789;28;19974;-87
2023/02/24 05:15:07;;;;;;;;;;;;;;;26.39;24.45;97247.38;5053295;28;19920;-89
2023/02/24 05:17:34;;;;;;;;;;;;;;;26.37;24.57;97241.47;5053338;28;20066;-90
2023/02/24 05:22:50;;;;;;;;;;;;;;;26.14;25.34;97237.22;5048642;28;20003;-89
2023/02/24 05:25:17;;;;;;;;;;;;;;;26.32;24.76;97242.06;5055187;28;19917;-92
2023/02/24 05:27:43;;;;;;;;;;;;;;;26.26;24.53;97239.09;5046492;28;20484;-90
2023/02/24 05:30:10;;;;;;;;;;;;;;;26.55;24.39;97242.22;5045968;28;19925;-92
2023/02/24 05:32:37;;;;;;;;;;;;;;;26.62;24.33;97241.91;5047343;28;20404;-92
2023/02/24 05:35:04;;;;;;;;;;;;;;;27.10;24.07;97242.09;5041150;28;19984;-91
2023/02/24 05:37:32;;;;;;;;;;;;;;;27.47;23.49;97237.16;5045851;28;20528;-91
2023/02/24 05:39:59;;;;;;;;;;;;;;;27.76;23.35;97232.44;5051598;28;20535;-92
2023/02/24 05:42:26;;;;;;;;;;;;;;;27.91;22.86;97233.28;5049515;28;20412;-91
2023/02/24 05:44:52;;;;;;;;;;;;;;;27.98;22.77;97232.16;5053262;28;19921;-90
2023/02/24 05:47:20;;;;;;;;;;;;;;;27.74;22.90;97237.78;5046822;28;19924;-89
2023/02/24 05:49:46;;;;;;;;;;;;;;;27.44;23.42;97233.25;5054464;28;19950;-87
2023/02/24 05:52:13;;;;;;;;;;;;;;;27.09;23.61;97229.28;5050712;28;19931;-90
2023/02/24 05:54:40;;;;;;;;;;;;;;;26.46;24.42;97230.97;5044350;28;20006;-90
2023/02/24 05:57:10;;;;;;;;;;;;;;;26.84;24.08;97226.88;5051535;28;19921;-93
2023/02/24 05:59:37;;;;;;;;;;;;;;;26.89;24.15;97227.00;5048641;28;19929;-87
2023/02/24 06:02:05;;;;;;;;;;;;;;;27.13;24.10;97227.06;5041832;28;20010;-92
2023/02/24 06:04:38;;;;;;;;;;;;;;;27.24;24.22;97214.03;5047063;28;19921;-90
2023/02/24 06:07:18;;;;;;;;;;;;;;;27.34;24.11;97212.75;5053544;28;19928;-93
2023/02/24 06:09:52;;;;;;;;;;;;;;;27.34;23.41;97204.28;5046403;28;19964;-89
2023/02/24 06:12:20;;;;;;;;;;;;;;;27.04;24.01;97207.38;5034070;28;19920;-91
2023/02/24 06:14:46;;;;;;;;;;;;;;;27.04;23.73;97198.94;5033581;28;19982;-90
2023/02/24 06:17:17;;;;;;;;;;;;;;;26.83;24.39;97200.72;5042756;28;19917;-90
2023/02/24 06:19:43;;;;;;;;;;;;;;;27.03;24.08;97203.78;5053550;28;19920;-90
2023/02/24 06:22:11;;;;;;;;;;;;;;;27.12;24.04;97197.34;5051502;28;20345;-89
2023/02/24 06:24:43;;;;;;;;;;;;;;;27.28;24.25;97196.97;5054829;28;20015;-89
2023/02/24 06:27:09;;;;;;;;;;;;;;;27.29;23.91;97190.84;5051256;28;19920;-89
2023/02/24 06:29:36;;;;;;;;;;;;;;;27.23;23.80;97191.97;5035774;28;19960;-89
2023/02/24 06:32:07;;;;;;;;;;;;;;;27.00;24.18;97187.06;5034275;28;19921;-89
2023/02/24 06:34:33;;;;;;;;;;;;;;;26.88;24.62;97186.00;5032541;28;20391;-89
2023/02/24 06:37:00;;;;;;;;;;;;;;;26.91;24.46;97189.91;5047043;28;19924;-90
2023/02/24 06:39:26;;;;;;;;;;;;;;;27.04;24.81;97182.03;5052249;28;19917;-89
2023/02/24 06:41:52;;;;;;;;;;;;;;;27.08;24.13;97196.72;5053925;28;19917;-90
2023/02/24 06:44:18;;;;;;;;;;;;;;;27.10;24.53;97185.75;5049914;28;19928;-89
2023/02/24 06:46:45;;;;;;;;;;;;;;;27.09;24.11;97170.13;5053773;28;20300;-88
2023/02/24 06:49:11;;;;;;;;;;;;;;;26.96;24.59;97187.22;5053411;28;19948;-88
2023/02/24 06:51:38;;;;;;;;;;;;;;;26.80;24.56;97181.16;5053880;28;19916;-89
2023/02/24 06:54:05;;;;;;;;;;;;;;;26.67;25.16;97170.88;5049074;28;19955;-88
2023/02/24 06:56:37;;;;;;;;;;;;;;;26.97;24.88;97165.47;5042604;28;19929;-89
2023/02/24 06:59:05;;;;;;;;;;;;;;;27.18;24.34;97168.03;5046561;28;19917;-89
2023/02/24 07:01:33;;;;;;;;;;;;;;;27.00;25.31;97168.09;5044823;28;20002;-88
2023/02/24 07:06:40;;;;;;;;;;;;;;;27.58;23.81;97158.44;5052294;28;20465;-89
2023/02/24 07:09:07;;;;;;;;;;;;;;;27.62;23.76;97159.03;5050702;28;20366;-89
2023/02/24 07:11:34;;;;;;;;;;;;;;;27.32;24.10;97156.06;5053382;28;19967;-90
2023/02/24 07:14:01;;;;;;;;;;;;;;;27.42;24.52;97149.13;5038454;28;19925;-89
2023/02/24 07:16:27;;;;;;;;;;;;;;;27.42;24.35;97157.59;5044038;28;20022;-88
2023/02/24 07:18:55;;;;;;;;;;;;;;;27.61;24.00;97151.84;5041143;28;19921;-89
2023/02/24 07:21:22;;;;;;;;;;;;;;;27.64;24.37;97153.69;5048118;28;19960;-88
2023/02/24 07:23:48;;;;;;;;;;;;;;;27.84;24.02;97149.00;5052160;28;19927;-89
2023/02/24 07:26:17;;;;;;;;;;;;;;;27.87;23.66;97150.84;5050519;28;19921;-89
2023/02/24 07:28:44;;;;;;;;;;;;;;;28.00;24.23;97142.97;5058431;28;19927;-89
2023/02/24 07:31:15;;;;;;;;;;;;;;;27.90;24.01;97135.00;5047338;28;20289;-90
2023/02/24 07:33:44;;;;;;;;;;;;;;;27.62;24.02;97131.63;5049694;28;19931;-89
2023/02/24 07:36:13;;;;;;;;;;;;;;;27.05;24.96;97127.25;5052282;28;19920;-87
2023/02/24 07:38:43;;;;;;;;;;;;;;;27.29;24.68;97126.00;5046969;28;19921;-87
2023/02/24 07:41:11;;;;;;;;;;;;;;;27.49;24.72;97130.31;5034636;28;20007;-88
2023/02/24 07:43:40;;;;;;;;;;;;;;;27.09;25.25;97123.00;5052240;28;19917;-88
2023/02/24 07:46:11;;;;;;;;;;;;;;;27.17;24.43;97117.78;5049717;28;19925;-90
2023/02/24 07:48:37;;;;;;;;;;;;;;;27.21;25.28;97112.75;5036456;28;20390;-90
2023/02/24 07:51:07;;;;;;;;;;;;;;;27.35;25.23;97112.81;5052421;28;20447;-89
2023/02/24 07:53:35;;;;;;;;;;;;;;;27.50;24.54;97115.72;5050840;28;20003;-89
2023/02/24 07:56:19;;;;;;;;;;;;;;;26.94;24.81;97112.88;5051998;28;19943;-89
2023/02/24 07:58:58;;;;;;;;;;;;;;;26.76;24.89;97113.75;5041243;28;19921;-89
2023/02/24 08:01:31;;;;;;;;;;;;;;;27.22;25.44;97119.94;5035978;28;20306;-89
2023/02/24 08:04:29;;;;;;;;;;;;;;;26.78;24.81;97111.25;5042010;28;19923;-90
2023/02/24 08:06:56;;;;;;;;;;;;;;;26.98;25.03;97111.44;5041003;28;20031;-90
2023/02/24 08:10:08;;;;;;;;;;;;;;;27.09;24.85;97108.91;5043008;28;19940;-89
2023/02/24 08:12:09;;;;;;;;;;;;;;;27.35;24.45;97098.72;5037978;28;19925;-89
2023/02/24 08:14:43;;;;;;;;;;;;;;;27.77;24.39;97107.03;5048361;28;20363;-90
2023/02/24 08:17:18;;;;;;;;;;;;;;;28.11;24.21;97105.69;5053327;28;19932;-89
2023/02/24 08:22:45;;;;;;;;;;;;;;;28.36;23.69;97093.81;5038675;28;19971;-90
2023/02/24 08:25:18;;;;;;;;;;;;;;;28.35;24.06;97089.47;5048192;28;19921;-90
2023/02/24 08:27:55;;;;;;;;;;;;;;;28.18;24.41;97096.06;5042457;28;19929;-90
2023/02/24 08:30:32;;;;;;;;;;;;;;;28.20;23.86;97097.13;5054147;28;19920;-90
2023/02/24 08:33:06;;;;;;;;;;;;;;;28.05;24.02;97096.34;5054978;28;19921;-90
2023/02/24 08:35:34;;;;;;;;;;;;;;;27.89;24.08;97089.06;5054522;28;19916;-90
2023/02/24 08:38:11;;;;;;;;;;;;;;;28.12;23.96;97092.38;5053117;28;19979;-90
2023/02/24 08:43:39;;;;;;;;;;;;;;;28.02;24.27;97084.00;5041918;28;19970;-90
2023/02/24 08:46:36;;;;;;;;;;;;;;;28.12;23.64;97083.91;5051966;28;19928;-89
2023/02/24 08:49:09;;;;;;;;;;;;;;;28.06;24.58;97081.75;5051379;28;20235;-89
2023/02/24 08:51:47;;;;;;;;;;;;;;;28.17;23.99;97078.34;5053818;28;19924;-89
2023/02/24 08:54:18;;;;;;;;;;;;;;;27.45;24.30;97067.66;5048412;28;20672;-92
2023/02/24 08:56:47;;;;;;;;;;;;;;;27.44;24.65;97074.56;5052294;28;19947;-90
2023/02/24 09:02:22;;;;;;;;;;;;;;;27.61;24.52;97079.28;5062113;28;19966;-90
2023/02/24 09:04:50;;;;;;;;;;;;;;;27.68;24.28;97073.28;5051433;28;19971;-91
2023/02/24 09:07:18;;;;;;;;;;;;;;;27.81;24.69;97073.81;5055222;28;19971;-89
2023/02/24 09:09:44;;;;;;;;;;;;;;;27.05;25.07;97068.09;5055730;28;19921;-89
2023/02/24 09:12:20;;;;;;;;;;;;;;;27.91;25.44;97063.97;5043240;28;19971;-89
2023/02/24 09:14:48;;;;;;;;;;;;;;;28.18;24.97;97062.97;5045317;28;19917;-90
2023/02/24 09:17:19;;;;;;;;;;;;;;;28.25;24.53;97062.59;5046941;28;19929;-89
2023/02/24 09:25:20;;;;;;;;;;;;;;;27.50;24.52;97047.25;5053962;28;19917;-90
2023/02/24 09:27:51;;;;;;;;;;;;;;;28.25;24.04;97045.66;5037443;28;19921;-89
2023/02/24 09:30:36;;;;;;;;;;;;;;;28.22;24.42;97054.28;5042046;28;19959;-90
2023/02/24 09:33:19;;;;;;;;;;;;;;;27.90;23.41;97041.91;5047713;28;19925;-89
2023/02/24 09:35:51;;;;;;;;;;;;;;;27.73;24.28;97035.94;5040922;28;20278;-89
2023/02/24 09:38:19;;;;;;;;;;;;;;;27.14;24.83;97037.03;5046720;28;19974;-86
2023/02/24 09:40:49;;;;;;;;;;;;;;;26.72;24.83;97031.47;5034798;28;20374;-87
2023/02/24 09:43:18;;;;;;;;;;;;;;;26.60;25.97;97035.25;5039647;28;20366;-87
2023/02/24 09:46:00;;;;;;;;;;;;;;;26.82;27.39;97029.38;5047376;28;19925;-86
2023/02/24 09:48:45;;;;;;;;;;;;;;;27.04;25.79;97024.25;5042620;28;19928;-87
2023/02/24 09:51:20;;;;;;;;;;;;;;;26.98;24.73;97015.66;5052656;28;20294;-86
2023/02/24 09:53:51;;;;;;;;;;;;;;;27.36;24.44;97026.19;5054831;28;20271;-86
2023/02/24 09:56:41;;;;;;;;;;;;;;;27.57;25.06;97013.84;5054636;28;19923;-85
2023/02/24 09:59:13;;;;;;;;;;;;;;;27.88;24.73;97019.03;5038397;28;19980;-90
2023/02/24 10:02:00;;;;;;;;;;;;;;;27.89;23.81;97012.91;5046318;28;19925;-87
2023/02/24 10:04:47;;;;;;;;;;;;;;;27.88;25.13;97017.00;5041333;28;19917;-86
2023/02/24 10:07:19;;;;;;;;;;;;;;;28.15;24.35;97015.16;5042607;28;19928;-86
2023/02/24 10:09:49;;;;;;;;;;;;;;;27.25;26.32;97003.44;5052540;28;19925;-85
2023/02/24 10:12:18;;;;;;;;;;;;;;;26.97;24.75;97002.84;5052385;28;19920;-86
2023/02/24 10:14:44;;;;;;;;;;;;;;;27.14;25.67;96998.34;5043733;28;20381;-87
2023/02/24 10:17:39;;;;;;;;;;;;;;;27.07;25.28;97001.50;5043382;28;19936;-85
2023/02/24 10:20:29;;;;;;;;;;;;;;;26.98;24.50;96998.00;5047062;28;19935;-86
2023/02/24 10:23:04;;;;;;;;;;;;;;;26.87;25.70;96997.75;5037348;28;20011;-87
2023/02/24 10:25:35;;;;;;;;;;;;;;;27.34;25.07;96986.44;5041679;28;19948;-86
2023/02/24 10:28:06;;;;;;;;;;;;;;;26.95;25.59;96982.06;5052441;28;19974;-86
2023/02/24 10:30:41;;;;;;;;;;;;;;;27.08;25.63;96988.22;5052047;28;19921;-86
2023/02/24 10:33:29;;;;;;;;;;;;;;;27.52;25.11;96974.25;5046822;28;20332;-86
2023/02/24 10:36:07;;;;;;;;;;;;;;;26.95;26.49;96971.56;5034924;28;20004;-86
2023/02/24 10:38:34;;;;;;;;;;;;;;;27.06;27.19;96965.38;5053067;28;19917;-85
2023/02/24 10:41:05;;;;;;;;;;;;;;;27.69;25.86;96955.59;5040946;28;20031;-86
2023/02/24 10:43:33;;;;;;;;;;;;;;;27.83;25.57;96947.16;5050641;28;19916;-85
2023/02/24 10:46:06;;;;;;;;;;;;;;;28.49;25.94;96935.41;5053712;28;19917;-86
2023/02/24 10:48:37;;;;;;;;;;;;;;;27.65;25.67;96936.06;5054209;28;19928;-85
2023/02/24 10:51:08;;;;;;;;;;;;;;;27.03;25.63;96933.31;5051424;28;19974;-86
2023/02/24 10:53:36;;;;;;;;;;;;;;;28.32;25.34;96914.59;5049955;28;19920;-87
2023/02/24 10:56:25;;;;;;;;;;;;;;;28.66;24.37;96906.13;5037978;28;19913;-87
2023/02/24 10:59:19;;;;;;;;;;;;;;;29.19;23.86;96905.81;5044069;28;19921;-85
2023/02/24 11:01:58;;;;;;;;;;;;;;;28.71;24.15;96905.44;5044144;28;19932;-85
2023/02/24 11:04:52;;;;;;;;;;;;;;;28.37;24.12;96894.94;5048430;28;20451;-86
2023/02/24 11:07:32;;;;;;;;;;;;;;;28.21;24.78;96901.09;5053503;28;20019;-85
2023/02/24 11:10:10;;;;;;;;;;;;;;;28.89;24.10;96889.47;5050732;28;19921;-84
2023/02/24 11:18:21;;;;;;;;;;;;;;;26.70;26.46;96893.16;5049200;28;20367;-88
2023/02/24 11:20:52;;;;;;;;;;;;;;;26.70;28.00;96870.63;5033553;28;20004;-87
2023/02/24 11:23:21;;;;;;;;;;;;;;;26.95;26.34;96858.09;5039680;28;20328;-87
2023/02/24 11:25:50;;;;;;;;;;;;;;;27.08;24.71;96867.84;5052015;28;19921;-86
2023/02/24 11:28:22;;;;;;;;;;;;;;;26.74;26.86;96863.56;5038573;28;19917;-87
2023/02/24 11:30:53;;;;;;;;;;;;;;;26.82;27.01;96860.38;5038266;28;19927;-84
2023/02/24 11:33:41;;;;;;;;;;;;;;;27.10;25.22;96856.06;5041459;28;20004;-89
2023/02/24 11:36:25;;;;;;;;;;;;;;;27.48;24.72;96841.16;5052130;28;20305;-88
2023/02/24 11:38:51;;;;;;;;;;;;;;;27.30;25.52;96844.94;5052821;28;19928;-89
2023/02/24 11:41:21;;;;;;;;;;;;;;;27.90;26.54;96833.13;5052745;28;19916;-88
2023/02/24 11:43:53;;;;;;;;;;;;;;;27.20;24.95;96835.78;5052467;28;20293;-84
2023/02/24 11:46:24;;;;;;;;;;;;;;;28.03;24.88;96830.78;5047380;28;20072;-89
2023/02/24 11:48:55;;;;;;;;;;;;;;;28.13;23.70;96828.59;5037819;28;19952;-90
2023/02/24 11:51:24;;;;;;;;;;;;;;;29.33;23.97;96831.41;5048011;28;19921;-87
2023/02/24 11:54:07;;;;;;;;;;;;;;;28.78;23.03;96813.06;5050320;28;19962;-88
2023/02/24 11:56:37;;;;;;;;;;;;;;;28.54;23.07;96804.78;5046470;28;19928;-88
2023/02/24 11:59:10;;;;;;;;;;;;;;;28.21;24.25;96818.47;5044812;28;19964;-87
2023/02/24 12:01:45;;;;;;;;;;;;;;;26.35;25.95;96818.97;5045415;28;19928;-87
2023/02/24 12:04:16;;;;;;;;;;;;;;;25.75;28.34;96810.69;5033572;28;19913;-88
2023/02/24 12:07:00;;;;;;;;;;;;;;;25.46;27.73;96816.13;5034355;28;19974;-87
2023/02/24 12:09:30;;;;;;;;;;;;;;;26.87;28.14;96817.47;5036048;28;20412;-87
2023/02/24 12:12:07;;;;;;;;;;;;;;;27.51;24.12;96809.97;5039291;28;19979;-92
2023/02/24 12:14:38;;;;;;;;;;;;;;;28.19;23.64;96801.25;5046319;28;19990;-87
2023/02/24 12:17:09;;;;;;;;;;;;;;;28.71;23.68;96800.91;5045711;28;19944;-88
2023/02/24 12:19:50;;;;;;;;;;;;;;;29.22;22.77;96790.94;5043007;28;19932;-89
2023/02/24 12:22:16;;;;;;;;;;;;;;;28.68;23.80;96799.06;5037220;28;19928;-90
2023/02/24 12:24:46;;;;;;;;;;;;;;;28.45;25.58;96794.41;5049440;28;20270;-89
2023/02/24 12:27:35;;;;;;;;;;;;;;;28.85;23.63;96795.66;5059526;28;20439;-88
2023/02/24 12:30:05;;;;;;;;;;;;;;;28.63;25.36;96794.16;5052897;28;19913;-88
2023/02/24 12:32:50;;;;;;;;;;;;;;;27.50;24.59;96797.13;5049118;28;19917;-89
2023/02/24 12:35:38;;;;;;;;;;;;;;;27.11;25.11;96796.44;5039936;28;20402;-89
2023/02/24 12:38:04;;;;;;;;;;;;;;;27.00;24.90;96792.63;5046541;28;19921;-88
2023/02/24 12:40:30;;;;;;;;;;;;;;;28.28;24.33;96787.00;5049891;28;19924;-88
2023/02/24 12:43:03;;;;;;;;;;;;;;;28.93;23.69;96786.25;5052415;28;20282;-88
2023/02/24 12:45:48;;;;;;;;;;;;;;;28.87;22.67;96779.75;5050178;28;19917;-88
2023/02/24 12:48:17;;;;;;;;;;;;;;;28.72;23.72;96781.91;5049317;28;19929;-88
2023/02/24 12:50:43;;;;;;;;;;;;;;;28.95;22.96;96783.72;5052277;28;19923;-88
2023/02/24 12:53:28;;;;;;;;;;;;;;;28.41;23.71;96774.06;5055071;28;19917;-88
2023/02/24 12:55:57;;;;;;;;;;;;;;;28.67;23.22;96765.69;5041225;28;19920;-89
2023/02/24 12:58:29;;;;;;;;;;;;;;;28.59;23.08;96758.94;5044235;28;19929;-88
2023/02/24 13:00:55;;;;;;;;;;;;;;;28.82;23.76;96766.38;5050430;28;20393;-90
2023/02/24 13:03:40;;;;;;;;;;;;;;;28.11;23.16;96761.38;5049837;28;19927;-90
2023/02/24 13:06:25;;;;;;;;;;;;;;;28.04;24.08;96759.75;5041116;28;19921;-89
2023/02/24 13:08:51;;;;;;;;;;;;;;;29.09;23.02;96751.72;5050633;28;19984;-89
2023/02/24 13:11:29;;;;;;;;;;;;;;;28.50;23.18;96745.69;5050191;28;20381;-89
2023/02/24 13:14:00;;;;;;;;;;;;;;;28.41;23.41;96751.50;5040672;28;19917;-88
2023/02/24 13:16:31;;;;;;;;;;;;;;;27.73;25.07;96739.78;5052844;28;19924;-89
2023/02/24 13:19:04;;;;;;;;;;;;;;;28.58;23.72;96746.81;5034418;28;19928;-89
2023/02/24 13:21:31;;;;;;;;;;;;;;;28.86;26.46;96735.84;5035514;28;19917;-89
2023/02/24 13:23:59;;;;;;;;;;;;;;;28.93;23.80;96740.25;5046148;28;20042;-89
2023/02/24 13:26:27;;;;;;;;;;;;;;;28.73;24.07;96747.50;5041407;28;20739;-89
2023/02/24 13:29:13;;;;;;;;;;;;;;;28.24;25.11;96730.00;5046295;28;19925;-89
2023/02/24 13:31:44;;;;;;;;;;;;;;;28.21;24.19;96730.97;5035843;28;20002;-89
2023/02/24 13:34:29;;;;;;;;;;;;;;;28.10;25.08;96731.59;5045409;28;19924;-89
2023/02/24 13:36:56;;;;;;;;;;;;;;;28.16;23.98;96723.19;5050192;28;19932;-89
2023/02/24 13:39:23;;;;;;;;;;;;;;;27.78;27.66;96712.91;5042299;28;19921;-89